Time;durP1;ratioP1;P1;durP2;ratioP2;P2;SDS_P1;SDS_P2;PMS_P1;PMS_P2;Temp;Humidity;BMP_temperature;BMP_pressure;BME280_temperature;BME280_humidity;BME280_pressure;Samples;Min_cycle;Max_cycle;Signal;HPM_P1;HPM_P2
2022/08/14 00:00:21;;;;;;;17.00;15.60;;;22.10;99.90;;;;;;5114282;28;20469;-59
2022/08/14 00:02:48;;;;;;;15.67;14.47;;;22.20;99.90;;;;;;5114523;28;20540;-60
2022/08/14 00:05:17;;;;;;;16.03;14.53;;;22.30;99.90;;;;;;5114406;28;20499;-60
2022/08/14 00:07:45;;;;;;;14.63;13.43;;;22.30;99.90;;;;;;5114290;28;20536;-60
2022/08/14 00:10:13;;;;;;;16.00;14.70;;;22.20;99.90;;;;;;5114248;28;20453;-59
2022/08/14 00:12:44;;;;;;;15.70;14.40;;;22.20;99.90;;;;;;5113966;28;20539;-60
2022/08/14 00:15:17;;;;;;;15.47;14.17;;;22.20;99.90;;;;;;5114306;28;20876;-59
2022/08/14 00:17:45;;;;;;;14.20;13.00;;;22.30;99.90;;;;;;5114220;28;20536;-59
2022/08/14 00:20:12;;;;;;;15.50;14.20;;;22.30;99.90;;;;;;5114028;28;20912;-60
2022/08/14 00:22:39;;;;;;;14.77;13.60;;;22.30;99.90;;;;;;5113920;28;20452;-60
2022/08/14 00:25:07;;;;;;;16.33;14.60;;;22.40;99.90;;;;;;5113878;28;20473;-60
2022/08/14 00:27:33;;;;;;;16.27;14.67;;;22.40;99.90;;;;;;5113768;28;20796;-60
2022/08/14 00:30:00;;;;;;;15.53;14.10;;;22.40;99.90;;;;;;5114017;28;20800;-60
2022/08/14 00:32:27;;;;;;;15.50;14.13;;;22.40;99.90;;;;;;5113947;28;20533;-59
2022/08/14 00:34:55;;;;;;;14.50;13.20;;;22.40;99.90;;;;;;5113854;28;20450;-59
2022/08/14 00:37:21;;;;;;;15.93;14.53;;;22.40;99.90;;;;;;5113747;28;21025;-60
2022/08/14 00:39:48;;;;;;;15.40;14.10;;;22.40;99.90;;;;;;5113604;28;20469;-60
2022/08/14 00:42:18;;;;;;;14.93;13.63;;;22.40;99.90;;;;;;5113916;28;20449;-59
2022/08/14 00:44:45;;;;;;;15.00;13.80;;;22.40;99.90;;;;;;5113832;28;20536;-59
2022/08/14 00:47:13;;;;;;;14.97;13.57;;;22.40;99.90;;;;;;5113482;28;20843;-60
2022/08/14 00:49:41;;;;;;;16.00;14.53;;;22.10;99.90;;;;;;5113692;28;20484;-60
2022/08/14 00:52:08;;;;;;;15.73;14.03;;;22.00;99.90;;;;;;5113537;28;20446;-60
2022/08/14 00:54:37;;;;;;;15.47;14.10;;;22.00;99.90;;;;;;5113738;28;20452;-60
2022/08/14 00:57:04;;;;;;;15.20;13.97;;;22.00;99.90;;;;;;5113662;28;20445;-60
2022/08/14 00:59:31;;;;;;;17.67;16.03;;;22.00;99.90;;;;;;5113570;28;20479;-59
2022/08/14 01:02:00;;;;;;;15.00;13.90;;;22.00;99.90;;;;;;5113474;28;20568;-60
2022/08/14 01:04:30;;;;;;;16.37;14.87;;;22.10;99.90;;;;;;5113364;28;20966;-59
2022/08/14 01:06:59;;;;;;;15.10;13.90;;;22.10;99.90;;;;;;5112879;28;20986;-60
2022/08/14 01:09:26;;;;;;;15.37;14.17;;;22.00;99.90;;;;;;5113512;28;20452;-59
2022/08/14 01:11:53;;;;;;;15.73;14.50;;;21.90;99.90;;;;;;5113456;28;20456;-60
2022/08/14 01:14:20;;;;;;;15.37;14.10;;;21.90;99.90;;;;;;5113474;28;20812;-60
2022/08/14 01:16:47;;;;;;;16.00;14.87;;;21.90;99.90;;;;;;5113328;28;20532;-60
2022/08/14 01:22:00;;;;;;;14.67;13.40;;;22.00;99.90;;;;;;5113222;28;20479;-59
2022/08/14 01:24:27;;;;;;;14.20;12.80;;;22.00;99.90;;;;;;5113447;28;20452;-60
2022/08/14 01:26:53;;;;;;;14.13;13.07;;;22.00;99.90;;;;;;5113319;28;20446;-60
2022/08/14 01:29:20;;;;;;;15.37;14.10;;;22.10;99.90;;;;;;5113193;28;20449;-60
2022/08/14 01:31:47;;;;;;;13.40;12.50;;;22.10;99.90;;;;;;5113060;28;20472;-60
2022/08/14 01:34:14;;;;;;;15.20;13.73;;;22.10;99.90;;;;;;5113432;28;20786;-60
2022/08/14 01:36:40;;;;;;;14.50;13.47;;;22.10;99.90;;;;;;5113254;28;20476;-60
2022/08/14 01:39:11;;;;;;;13.63;12.30;;;21.90;99.90;;;;;;5113215;28;20869;-60
2022/08/14 01:41:38;;;;;;;14.47;13.23;;;21.90;99.90;;;;;;5113122;28;20477;-59
2022/08/14 01:44:10;;;;;;;14.50;13.37;;;21.80;99.90;;;;;;5113094;28;20528;-59
2022/08/14 01:46:39;;;;;;;15.30;13.90;;;21.80;99.90;;;;;;5113020;28;20449;-60
2022/08/14 01:49:08;;;;;;;13.80;12.80;;;21.90;99.90;;;;;;5113149;28;20532;-60
2022/08/14 01:51:36;;;;;;;14.67;13.57;;;21.90;99.90;;;;;;5113077;28;20461;-60
2022/08/14 01:54:08;;;;;;;13.87;12.73;;;21.90;99.90;;;;;;5113078;28;20445;-59
2022/08/14 01:56:37;;;;;;;13.30;12.20;;;22.00;99.90;;;;;;5113028;28;20534;-60
2022/08/14 01:59:05;;;;;;;14.17;13.13;;;22.10;99.90;;;;;;5112886;28;21000;-60
2022/08/14 02:01:33;;;;;;;12.80;11.70;;;22.10;99.90;;;;;;5112965;28;20560;-60
2022/08/14 02:04:00;;;;;;;14.20;13.00;;;22.20;99.90;;;;;;5112824;28;20453;-60
2022/08/14 02:06:26;;;;;;;13.23;12.23;;;22.10;99.90;;;;;;5112927;28;20452;-59
2022/08/14 02:08:53;;;;;;;13.33;12.33;;;21.90;99.90;;;;;;5112850;28;20452;-60
2022/08/14 02:11:23;;;;;;;13.83;12.73;;;21.80;99.90;;;;;;5112698;28;20460;-60
2022/08/14 02:13:55;;;;;;;14.87;13.53;;;21.70;99.90;;;;;;5112620;28;20968;-59
2022/08/14 02:16:25;;;;;;;15.00;13.60;;;21.50;99.90;;;;;;5112907;28;20457;-60
2022/08/14 02:18:52;;;;;;;15.07;13.77;;;21.50;99.90;;;;;;5112816;28;20448;-59
2022/08/14 02:21:20;;;;;;;14.17;13.07;;;21.50;99.90;;;;;;5116239;28;20505;-59
2022/08/14 02:23:47;;;;;;;14.93;13.70;;;21.60;99.90;;;;;;5116356;28;20865;-60
2022/08/14 02:26:17;;;;;;;13.60;12.40;;;21.70;99.90;;;;;;5116322;28;20506;-60
2022/08/14 02:28:45;;;;;;;14.73;13.37;;;21.80;99.90;;;;;;5116931;28;20449;-60
2022/08/14 02:31:13;;;;;;;14.53;13.10;;;21.80;99.90;;;;;;5116347;28;20480;-60
2022/08/14 02:33:41;;;;;;;15.20;14.00;;;21.80;99.90;;;;;;5116198;28;20540;-59
2022/08/14 02:36:08;;;;;;;13.97;12.73;;;21.80;99.90;;;;;;5116202;28;20457;-60
2022/08/14 02:38:35;;;;;;;14.00;13.00;;;21.80;99.90;;;;;;5116148;27;20519;-60
2022/08/14 02:41:04;;;;;;;14.90;13.80;;;21.80;99.90;;;;;;5116205;28;20502;-59
2022/08/14 02:43:31;;;;;;;13.53;12.53;;;21.80;99.90;;;;;;5116140;28;20488;-60
2022/08/14 02:45:57;;;;;;;13.47;12.37;;;21.90;99.90;;;;;;5115987;28;20522;-60
2022/08/14 02:48:30;;;;;;;14.03;12.60;;;21.90;99.90;;;;;;5115734;28;20556;-60
2022/08/14 02:50:57;;;;;;;14.87;13.60;;;22.00;99.90;;;;;;5115810;28;20533;-60
2022/08/14 02:53:23;;;;;;;13.90;12.77;;;22.00;99.90;;;;;;5115689;28;20534;-60
2022/08/14 02:55:50;;;;;;;13.93;12.93;;;22.10;99.90;;;;;;5115830;28;20445;-60
2022/08/14 02:58:17;;;;;;;14.80;13.57;;;22.10;99.90;;;;;;5115801;28;20441;-59
2022/08/14 03:00:43;;;;;;;13.23;12.23;;;22.00;99.90;;;;;;5115604;28;20480;-60
2022/08/14 03:03:10;;;;;;;13.87;12.53;;;22.10;99.90;;;;;;5115548;28;20532;-60
2022/08/14 03:05:38;;;;;;;12.67;11.77;;;22.10;99.90;;;;;;5115447;28;20557;-60
2022/08/14 03:08:06;;;;;;;13.20;12.20;;;22.20;99.90;;;;;;5115799;28;20510;-59
2022/08/14 03:10:33;;;;;;;13.53;12.40;;;22.10;99.90;;;;;;5115547;28;20812;-59
2022/08/14 03:13:03;;;;;;;14.43;13.40;;;21.70;99.90;;;;;;5115370;28;20473;-59
2022/08/14 03:15:30;;;;;;;14.20;13.00;;;21.60;99.90;;;;;;5115374;28;20450;-59
2022/08/14 03:17:56;;;;;;;14.53;13.33;;;21.30;99.90;;;;;;5115235;28;20913;-59
2022/08/14 03:20:23;;;;;;;13.37;12.40;;;21.20;99.90;;;;;;5115029;28;20963;-60
2022/08/14 03:22:51;;;;;;;14.20;13.10;;;21.10;99.90;;;;;;5115440;28;21056;-60
2022/08/14 03:25:18;;;;;;;14.40;13.10;;;21.20;99.90;;;;;;5115097;28;20971;-59
2022/08/14 03:27:44;;;;;;;15.77;14.33;;;21.30;99.90;;;;;;5115051;28;20536;-59
2022/08/14 03:30:12;;;;;;;14.77;13.67;;;21.30;99.90;;;;;;5114766;28;20446;-59
2022/08/14 03:32:38;;;;;;;13.23;12.33;;;21.40;99.90;;;;;;5114905;28;20820;-59
2022/08/14 03:35:06;;;;;;;14.07;12.90;;;21.40;99.90;;;;;;5115176;28;20532;-60
2022/08/14 03:37:33;;;;;;;14.27;13.17;;;21.20;99.90;;;;;;5115023;28;20442;-59
2022/08/14 03:40:01;;;;;;;13.97;12.87;;;20.90;99.90;;;;;;5114964;28;20866;-59
2022/08/14 03:42:27;;;;;;;13.20;12.30;;;20.70;99.90;;;;;;5114824;28;20503;-59
2022/08/14 03:44:54;;;;;;;13.50;12.50;;;20.60;99.90;;;;;;5114738;28;20452;-59
2022/08/14 03:47:20;;;;;;;14.27;13.10;;;20.70;99.90;;;;;;5114483;28;20836;-59
2022/08/14 03:49:47;;;;;;;14.80;13.67;;;20.80;99.90;;;;;;5114652;28;20446;-59
2022/08/14 03:52:14;;;;;;;14.50;13.50;;;20.90;99.90;;;;;;5114684;28;20854;-59
2022/08/14 03:54:40;;;;;;;14.90;13.80;;;21.00;99.90;;;;;;5114629;28;20544;-60
2022/08/14 03:57:09;;;;;;;15.23;14.13;;;21.10;99.90;;;;;;5114529;28;20866;-59
2022/08/14 03:59:36;;;;;;;14.10;13.00;;;21.20;99.90;;;;;;5114492;28;20441;-59
2022/08/14 04:02:03;;;;;;;14.00;13.00;;;21.20;99.90;;;;;;5114212;28;20481;-60
2022/08/14 04:04:30;;;;;;;15.60;14.33;;;21.10;99.90;;;;;;5114542;28;20457;-59
2022/08/14 04:06:58;;;;;;;14.53;13.50;;;21.20;99.90;;;;;;5114421;28;20540;-59
2022/08/14 04:09:24;;;;;;;15.53;14.43;;;21.20;99.90;;;;;;5114374;28;20453;-59
2022/08/14 04:11:51;;;;;;;14.33;13.23;;;21.30;99.90;;;;;;5114229;28;20449;-59
2022/08/14 04:14:18;;;;;;;14.40;13.30;;;21.50;99.90;;;;;;5114112;28;20533;-60
2022/08/14 04:16:46;;;;;;;14.50;13.37;;;21.40;99.90;;;;;;5114409;28;20450;-59
2022/08/14 04:19:17;;;;;;;14.53;13.43;;;21.30;99.90;;;;;;5114245;28;20441;-60
2022/08/14 04:21:43;;;;;;;13.73;12.73;;;21.30;99.90;;;;;;5114102;28;20832;-60
2022/08/14 04:24:12;;;;;;;15.30;14.10;;;21.40;99.90;;;;;;5114064;28;20451;-59
2022/08/14 04:26:39;;;;;;;14.13;12.97;;;21.30;99.90;;;;;;5113925;28;20943;-59
2022/08/14 04:29:06;;;;;;;14.47;13.17;;;21.20;99.90;;;;;;5113830;28;20457;-59
2022/08/14 04:31:34;;;;;;;14.30;13.17;;;21.10;99.90;;;;;;5114050;28;20995;-59
2022/08/14 04:34:02;;;;;;;16.67;15.37;;;21.10;99.90;;;;;;5114002;28;20878;-59
2022/08/14 04:36:29;;;;;;;14.70;13.47;;;21.10;99.90;;;;;;5113903;28;20546;-59
2022/08/14 04:44:24;;;;;;;15.00;13.90;;;21.30;99.90;;;;;;5113748;28;20437;-59
2022/08/14 04:49:32;;;;;;;24.67;22.13;;;21.30;99.90;;;;;;5090474;28;20774;-59
2022/08/14 04:52:02;;;;;;;14.00;12.70;;;21.20;99.90;;;;;;5113483;28;20452;-59
2022/08/14 04:54:29;;;;;;;13.87;12.87;;;21.30;99.90;;;;;;5113764;28;20450;-59
2022/08/14 04:56:56;;;;;;;16.57;15.27;;;21.40;99.90;;;;;;5113585;28;20452;-59
2022/08/14 04:59:23;;;;;;;15.63;14.13;;;21.40;99.90;;;;;;5113645;28;20454;-59
2022/08/14 05:01:52;;;;;;;17.43;16.03;;;21.50;99.90;;;;;;5113404;28;20507;-59
2022/08/14 05:04:19;;;;;;;14.67;13.50;;;21.50;99.90;;;;;;5113353;28;20457;-60
2022/08/14 05:06:45;;;;;;;15.13;14.03;;;21.60;99.90;;;;;;5113435;28;20446;-59
2022/08/14 05:09:12;;;;;;;14.83;13.50;;;21.70;99.90;;;;;;5113264;28;21008;-59
2022/08/14 05:11:38;;;;;;;13.80;12.80;;;21.80;99.90;;;;;;5113505;28;20446;-59
2022/08/14 05:14:05;;;;;;;13.90;12.90;;;21.90;99.90;;;;;;5113413;28;20445;-59
2022/08/14 05:16:31;;;;;;;13.10;12.10;;;22.00;99.90;;;;;;5113328;28;20454;-60
2022/08/14 05:18:59;;;;;;;13.50;12.50;;;22.20;99.90;;;;;;5113199;28;20532;-60
2022/08/14 05:21:27;;;;;;;14.50;13.30;;;22.30;99.90;;;;;;5113372;28;20555;-60
2022/08/14 05:23:54;;;;;;;15.20;13.70;;;22.40;99.90;;;;;;5113369;28;20450;-60
2022/08/14 05:26:21;;;;;;;14.67;13.33;;;22.50;99.90;;;;;;5113290;28;20454;-60
2022/08/14 05:28:47;;;;;;;13.97;12.90;;;22.30;99.90;;;;;;5113261;28;20481;-60
2022/08/14 05:31:16;;;;;;;15.93;14.43;;;22.30;99.90;;;;;;5113196;28;20449;-59
2022/08/14 05:33:44;;;;;;;13.67;12.57;;;22.20;99.90;;;;;;5113019;28;20454;-60
2022/08/14 05:36:13;;;;;;;14.10;13.10;;;22.20;99.90;;;;;;5113213;28;20537;-60
2022/08/14 05:38:43;;;;;;;12.27;11.37;;;22.20;99.90;;;;;;5113221;28;20506;-59
2022/08/14 05:41:11;;;;;;;24.33;20.80;;;22.20;99.90;;;;;;5113216;28;20856;-59
2022/08/14 05:43:39;;;;;;;29.07;24.27;;;22.20;99.90;;;;;;5113123;28;20456;-59
2022/08/14 05:46:07;;;;;;;18.60;16.57;;;22.30;99.90;;;;;;5113036;28;20464;-59
2022/08/14 05:48:34;;;;;;;16.20;14.70;;;22.40;99.90;;;;;;5112818;28;21070;-59
2022/08/14 05:51:00;;;;;;;15.20;14.10;;;22.50;99.90;;;;;;5113087;28;20442;-60
2022/08/14 05:53:28;;;;;;;14.73;13.37;;;22.40;99.90;;;;;;5113860;28;20456;-59
2022/08/14 05:55:56;;;;;;;16.60;15.20;;;22.50;99.90;;;;;;5116946;28;20445;-59
2022/08/14 05:58:23;;;;;;;14.70;13.60;;;22.50;99.90;;;;;;5116860;28;20477;-59
2022/08/14 06:00:49;;;;;;;14.17;13.17;;;22.60;99.90;;;;;;5116716;28;20452;-60
2022/08/14 06:03:17;;;;;;;15.40;14.37;;;22.70;99.90;;;;;;5116786;28;20481;-60
2022/08/14 06:05:45;;;;;;;17.10;15.60;;;22.90;99.90;;;;;;5116756;28;20536;-59
2022/08/14 06:08:16;;;;;;;16.33;14.83;;;23.00;99.90;;;;;;5116671;28;20451;-59
2022/08/14 06:10:44;;;;;;;16.60;15.20;;;23.10;99.90;;;;;;5116513;28;20959;-59
2022/08/14 06:13:11;;;;;;;13.93;12.83;;;23.10;99.90;;;;;;5116444;28;20445;-60
2022/08/14 06:15:37;;;;;;;17.10;15.87;;;23.10;99.90;;;;;;5116669;28;20445;-59
2022/08/14 06:18:04;;;;;;;15.57;14.27;;;23.00;99.90;;;;;;5116636;28;20875;-59
2022/08/14 06:20:31;;;;;;;16.27;14.97;;;22.90;99.90;;;;;;5116446;28;20549;-59
2022/08/14 06:22:57;;;;;;;16.20;14.80;;;22.80;99.90;;;;;;5116385;28;20480;-59
2022/08/14 06:25:24;;;;;;;25.30;18.63;;;22.80;99.90;;;;;;5116330;28;20808;-60
2022/08/14 06:27:52;;;;;;;17.90;15.97;;;22.80;99.90;;;;;;5116228;28;20449;-60
2022/08/14 06:30:21;;;;;;;18.17;16.13;;;22.90;99.90;;;;;;5116405;28;20487;-59
2022/08/14 06:32:48;;;;;;;16.30;14.90;;;23.00;99.90;;;;;;5116217;28;20456;-59
2022/08/14 06:35:17;;;;;;;15.67;14.47;;;23.10;99.90;;;;;;5116185;28;20450;-59
2022/08/14 06:37:45;;;;;;;17.33;15.60;;;23.30;99.90;;;;;;5116044;28;20441;-59
2022/08/14 06:40:13;;;;;;;16.00;14.57;;;23.50;99.90;;;;;;5115976;28;20603;-59
2022/08/14 06:42:40;;;;;;;18.07;16.30;;;23.60;99.90;;;;;;5116086;28;20509;-59
2022/08/14 06:45:10;;;;;;;16.40;14.90;;;23.80;99.90;;;;;;5116087;28;20444;-60
2022/08/14 06:47:37;;;;;;;16.00;14.50;;;23.90;99.90;;;;;;5115853;28;20565;-59
2022/08/14 06:50:05;;;;;;;13.30;12.27;;;23.90;99.90;;;;;;5115808;28;20524;-60
2022/08/14 06:52:32;;;;;;;18.17;16.33;;;24.00;99.90;;;;;;5115838;28;20445;-60
2022/08/14 06:54:58;;;;;;;15.07;13.70;;;24.20;99.90;;;;;;5115585;28;21004;-63
2022/08/14 06:57:26;;;;;;;16.97;15.50;;;24.20;99.90;;;;;;5115857;28;20445;-60
2022/08/14 06:59:52;;;;;;;13.83;12.50;;;24.10;99.90;;;;;;5115767;28;20495;-59
2022/08/14 07:07:50;;;;;;;16.30;14.57;;;24.00;99.90;;;;;;5115535;28;20444;-60
2022/08/14 07:10:17;;;;;;;21.00;17.07;;;23.90;99.90;;;;;;5115540;28;20445;-60
2022/08/14 07:12:43;;;;;;;13.53;12.43;;;24.00;99.90;;;;;;5115316;28;20971;-59
2022/08/14 07:15:10;;;;;;;13.90;12.67;;;24.20;99.90;;;;;;5115360;28;20445;-59
2022/08/14 07:17:45;;;;;;;12.67;11.67;;;24.50;99.90;;;;;;5115258;28;20445;-60
2022/08/14 07:20:12;;;;;;;12.80;11.70;;;24.60;99.90;;;;;;5115410;28;20808;-59
2022/08/14 07:22:39;;;;;;;12.80;11.70;;;24.70;99.90;;;;;;5115064;28;20477;-60
2022/08/14 07:25:06;;;;;;;13.40;12.30;;;24.60;99.90;;;;;;5115131;28;20446;-60
2022/08/14 07:27:32;;;;;;;12.17;10.90;;;24.90;99.90;;;;;;5115097;28;20896;-60
2022/08/14 07:29:59;;;;;;;14.27;13.07;;;25.20;99.90;;;;;;5115153;28;20446;-60
2022/08/14 07:32:25;;;;;;;13.23;12.00;;;25.40;99.90;;;;;;5114831;28;20820;-60
2022/08/14 07:34:53;;;;;;;11.77;10.80;;;25.10;99.90;;;;;;5115111;28;20457;-60
2022/08/14 07:37:20;;;;;;;13.57;12.37;;;25.30;99.90;;;;;;5115032;28;20468;-60
2022/08/14 07:39:46;;;;;;;11.13;10.10;;;25.60;99.90;;;;;;5114893;28;20445;-60
2022/08/14 07:42:13;;;;;;;12.00;11.07;;;25.90;99.90;;;;;;5114785;27;20466;-60
2022/08/14 07:44:39;;;;;;;12.20;11.27;;;26.20;99.90;;;;;;5114583;28;20948;-60
2022/08/14 07:47:06;;;;;;;10.10;9.30;;;26.30;99.90;;;;;;5114302;28;20480;-60
2022/08/14 07:49:33;;;;;;;10.87;10.07;;;26.10;99.90;;;;;;5114747;28;20448;-60
2022/08/14 07:52:01;;;;;;;20.70;18.07;;;26.00;99.90;;;;;;5114647;27;20506;-60
2022/08/14 07:54:28;;;;;;;11.43;10.53;;;25.90;99.90;;;;;;5114567;28;20536;-60
2022/08/14 07:56:54;;;;;;;11.07;10.27;;;25.80;99.90;;;;;;5114480;28;20441;-60
2022/08/14 07:59:22;;;;;;;12.43;9.60;;;25.80;99.90;;;;;;5114446;28;20448;-60
2022/08/14 08:01:49;;;;;;;11.03;10.03;;;25.90;99.90;;;;;;5114519;28;20446;-60
2022/08/14 08:04:16;;;;;;;11.63;10.63;;;25.90;99.90;;;;;;5114600;28;20446;-60
2022/08/14 08:06:43;;;;;;;13.63;10.27;;;26.00;99.90;;;;;;5114278;28;20936;-60
2022/08/14 08:09:12;;;;;;;11.30;10.37;;;26.10;99.90;;;;;;5114343;27;20445;-60
2022/08/14 08:11:40;;;;;;;10.43;8.83;;;26.30;99.90;;;;;;5114235;28;20950;-60
2022/08/14 08:14:07;;;;;;;9.53;8.83;;;26.50;99.90;;;;;;5114114;28;20453;-60
2022/08/14 08:16:35;;;;;;;10.97;9.87;;;26.80;99.90;;;;;;5113819;28;20449;-60
2022/08/14 08:19:01;;;;;;;9.70;9.00;;;26.70;99.90;;;;;;5113906;28;20456;-60
2022/08/14 08:21:28;;;;;;;9.13;8.43;;;26.80;99.90;;;;;;5114102;28;20545;-60
2022/08/14 08:23:54;;;;;;;9.80;8.87;;;26.90;99.90;;;;;;5113876;28;21056;-60
2022/08/14 08:26:29;;;;;;;8.70;8.10;;;27.00;99.90;;;;;;5113896;28;20532;-60
2022/08/14 08:28:56;;;;;;;12.63;8.57;;;27.20;99.90;;;;;;5114169;28;20452;-60
2022/08/14 08:31:22;;;;;;;10.50;9.70;;;27.30;99.90;;;;;;5113965;28;20813;-60
2022/08/14 08:33:52;;;;;;;8.10;7.60;;;27.40;99.90;;;;;;5113910;28;20816;-60
2022/08/14 08:36:19;;;;;;;8.90;8.20;;;27.40;99.90;;;;;;5113783;28;20441;-60
2022/08/14 08:38:48;;;;;;;9.30;8.53;;;27.70;99.90;;;;;;5113686;28;20481;-60
2022/08/14 08:41:14;;;;;;;8.47;7.67;;;27.70;99.90;;;;;;5113624;28;20561;-60
2022/08/14 08:43:42;;;;;;;11.20;8.17;;;27.70;99.90;;;;;;5113702;28;20836;-60
2022/08/14 08:46:10;;;;;;;9.57;8.30;;;27.70;99.90;;;;;;5113760;28;20557;-60
2022/08/14 08:48:45;;;;;;;8.13;7.53;;;27.70;99.90;;;;;;5113518;28;20556;-60
2022/08/14 08:51:22;;;;;;;8.50;7.80;;;27.80;99.90;;;;;;5113638;28;20468;-60
2022/08/14 08:53:57;;;;;;;7.30;6.83;;;27.70;99.90;;;;;;5113514;28;20528;-60
2022/08/14 08:56:34;;;;;;;7.17;6.50;;;27.90;99.90;;;;;;5113637;28;20847;-60
2022/08/14 08:59:02;;;;;;;11.73;7.70;;;28.10;99.90;;;;;;5113587;28;20456;-60
2022/08/14 09:01:30;;;;;;;7.63;7.13;;;28.20;99.90;;;;;;5113453;28;20865;-60
2022/08/14 09:04:02;;;;;;;7.83;7.23;;;28.30;99.90;;;;;;5112950;28;20477;-60
2022/08/14 09:06:29;;;;;;;6.97;6.47;;;28.00;99.90;;;;;;5113490;28;20450;-60
2022/08/14 09:08:55;;;;;;;6.93;6.00;;;28.10;99.90;;;;;;5113460;28;20909;-60
2022/08/14 09:11:23;;;;;;;6.50;6.00;;;28.10;99.90;;;;;;5113404;28;20533;-60
2022/08/14 09:13:51;;;;;;;7.03;6.53;;;28.20;99.90;;;;;;5113311;28;20455;-60
2022/08/14 09:16:21;;;;;;;8.97;8.07;;;28.30;99.90;;;;;;5113084;28;20813;-60
2022/08/14 09:18:48;;;;;;;8.50;7.90;;;28.40;99.90;;;;;;5113212;28;20847;-60
2022/08/14 09:21:14;;;;;;;12.00;8.00;;;28.60;99.90;;;;;;5113314;28;20452;-60
2022/08/14 09:23:41;;;;;;;5.70;5.30;;;28.70;99.90;;;;;;5113104;28;20503;-60
2022/08/14 09:26:08;;;;;;;6.10;5.50;;;28.70;99.90;;;;;;5113193;28;20997;-60
2022/08/14 09:28:34;;;;;;;6.40;5.70;;;28.70;99.90;;;;;;5114272;28;20456;-60
2022/08/14 09:31:02;;;;;;;7.33;5.43;;;28.80;99.90;;;;;;5117290;28;20532;-60
2022/08/14 09:33:58;;;;;;;5.33;4.97;;;28.60;99.90;;;;;;5117501;28;20477;-60
2022/08/14 09:36:52;;;;;;;7.70;4.83;;;28.80;99.90;;;;;;5116805;28;20442;-60
2022/08/14 09:39:31;;;;;;;4.63;4.20;;;29.10;99.90;;;;;;5107624;28;20500;-60
2022/08/14 09:42:13;;;;;;;4.97;4.43;;;28.80;99.90;;;;;;5117216;28;20540;-60
2022/08/14 09:44:47;;;;;;;5.23;4.23;;;28.80;99.90;;;;;;5117088;28;20854;-60
2022/08/14 09:47:15;;;;;;;4.30;4.00;;;29.20;99.90;;;;;;5116956;28;20473;-60
2022/08/14 09:49:44;;;;;;;6.03;4.63;;;29.20;99.90;;;;;;5116872;28;20468;-60
2022/08/14 09:52:12;;;;;;;4.83;4.57;;;29.30;99.90;;;;;;5116882;28;20528;-60
2022/08/14 09:54:41;;;;;;;4.87;4.57;;;29.10;99.90;;;;;;5116867;28;20536;-60
2022/08/14 09:57:09;;;;;;;4.77;4.47;;;29.20;99.90;;;;;;5116948;28;20536;-60
2022/08/14 09:59:44;;;;;;;6.50;5.10;;;29.30;99.90;;;;;;5116829;28;20516;-60
2022/08/14 10:02:21;;;;;;;4.90;4.60;;;29.50;99.90;;;;;;5116642;28;20449;-60
2022/08/14 10:05:01;;;;;;;4.57;4.27;;;29.60;99.90;;;;;;5116608;28;21004;-60
2022/08/14 10:07:33;;;;;;;4.33;3.87;;;29.60;99.90;;;;;;5116638;28;20449;-60
2022/08/14 10:10:00;;;;;;;7.80;3.80;;;29.80;99.90;;;;;;5116672;28;20449;-60
2022/08/14 10:12:41;;;;;;;4.43;4.17;;;29.70;99.90;;;;;;5116451;28;20453;-60
2022/08/14 10:15:18;;;;;;;4.80;3.53;;;29.80;99.90;;;;;;5116606;28;20445;-60
2022/08/14 10:17:45;;;;;;;4.33;4.03;;;29.80;99.90;;;;;;5116597;28;20761;-60
2022/08/14 10:20:14;;;;;;;4.23;3.97;;;30.20;99.90;;;;;;5116457;28;20484;-60
2022/08/14 10:22:41;;;;;;;5.53;5.03;;;30.50;99.90;;;;;;5116160;28;20449;-60
2022/08/14 10:25:13;;;;;;;4.63;4.40;;;30.50;99.90;;;;;;5116157;28;20449;-60
2022/08/14 10:27:40;;;;;;;5.50;4.80;;;30.00;99.90;;;;;;5116354;28;20452;-60
2022/08/14 10:30:13;;;;;;;7.03;6.40;;;29.80;99.90;;;;;;5116319;28;20441;-60
2022/08/14 10:32:44;;;;;;;7.83;4.90;;;30.00;99.90;;;;;;5116299;28;20817;-59
2022/08/14 10:35:15;;;;;;;5.23;3.97;;;29.70;99.90;;;;;;5116046;28;20528;-60
2022/08/14 10:37:46;;;;;;;4.17;3.97;;;29.80;99.90;;;;;;5116036;28;20441;-60
2022/08/14 10:40:14;;;;;;;4.33;4.03;;;29.80;99.90;;;;;;5115061;28;20530;-60
2022/08/14 10:42:44;;;;;;;4.03;3.70;;;30.00;99.90;;;;;;5115817;28;20532;-61
2022/08/14 10:45:19;;;;;;;4.50;4.07;;;29.60;99.90;;;;;;5115852;28;20445;-59
2022/08/14 10:47:46;;;;;;;11.10;4.00;;;29.60;99.90;;;;;;5115779;28;20476;-60
2022/08/14 10:50:15;;;;;;;4.50;3.77;;;30.10;99.90;;;;;;5115769;28;20452;-60
2022/08/14 10:52:43;;;;;;;6.53;4.20;;;30.20;99.90;;;;;;5115910;28;20441;-60
2022/08/14 10:55:12;;;;;;;4.23;4.03;;;30.20;99.90;;;;;;5115773;28;20445;-60
2022/08/14 10:57:49;;;;;;;4.27;3.97;;;30.00;99.90;;;;;;5115544;28;20936;-60
2022/08/14 11:00:18;;;;;;;4.70;4.03;;;29.80;99.90;;;;;;5115391;28;20453;-60
2022/08/14 11:02:44;;;;;;;3.90;3.60;;;29.80;99.90;;;;;;5115393;28;20499;-60
2022/08/14 11:05:14;;;;;;;4.37;4.10;;;30.10;99.90;;;;;;5115643;28;20742;-59
2022/08/14 11:07:43;;;;;;;7.20;3.93;;;30.20;99.90;;;;;;5115733;28;20442;-60
2022/08/14 11:10:11;;;;;;;4.73;4.40;;;30.10;99.90;;;;;;5115481;28;20800;-60
2022/08/14 11:12:46;;;;;;;4.23;4.03;;;30.00;99.90;;;;;;5115324;28;20445;-60
2022/08/14 11:15:15;;;;;;;4.50;4.10;;;30.00;99.90;;;;;;5115244;28;20449;-60
2022/08/14 11:17:42;;;;;;;4.83;4.47;;;30.20;99.90;;;;;;5115384;28;20453;-60
2022/08/14 11:20:10;;;;;;;4.77;4.50;;;30.10;99.90;;;;;;5115532;28;20452;-60
2022/08/14 11:22:41;;;;;;;4.97;4.53;;;30.10;99.90;;;;;;5115158;28;20452;-60
2022/08/14 11:25:10;;;;;;;5.77;4.97;;;30.20;99.90;;;;;;5115024;28;20484;-60
2022/08/14 11:27:39;;;;;;;4.50;4.20;;;30.20;99.90;;;;;;5114952;28;21007;-60
2022/08/14 11:30:07;;;;;;;4.70;4.33;;;30.60;99.90;;;;;;5115109;28;20532;-60
2022/08/14 11:32:35;;;;;;;5.67;5.10;;;30.30;99.90;;;;;;5115032;28;20437;-60
2022/08/14 11:35:02;;;;;;;5.90;5.40;;;30.30;99.90;;;;;;5115065;28;20537;-60
2022/08/14 11:37:33;;;;;;;4.37;4.10;;;30.40;99.10;;;;;;5114833;28;20524;-60
2022/08/14 11:40:01;;;;;;;4.77;4.10;;;30.60;98.20;;;;;;5114772;28;20502;-60
2022/08/14 11:42:28;;;;;;;4.60;4.30;;;30.50;98.30;;;;;;5114472;28;20507;-60
2022/08/14 11:44:58;;;;;;;6.10;4.90;;;30.70;99.00;;;;;;5114541;28;20481;-60
2022/08/14 11:47:25;;;;;;;8.90;4.80;;;30.80;98.40;;;;;;5114446;28;20469;-60
2022/08/14 11:49:52;;;;;;;4.17;3.97;;;31.00;98.20;;;;;;5114649;28;20536;-60
2022/08/14 11:52:18;;;;;;;3.97;3.67;;;30.90;96.80;;;;;;5114309;28;20949;-60
2022/08/14 11:54:55;;;;;;;3.70;3.50;;;31.00;95.90;;;;;;5114571;28;20820;-60
2022/08/14 11:57:23;;;;;;;4.63;3.80;;;30.90;95.00;;;;;;5114692;28;20496;-60
2022/08/14 12:00:00;;;;;;;4.20;4.00;;;31.00;94.70;;;;;;5114540;28;20491;-60
2022/08/14 12:02:27;;;;;;;4.53;4.10;;;31.00;93.30;;;;;;5114368;28;20449;-60
2022/08/14 12:04:53;;;;;;;4.13;3.93;;;31.50;93.60;;;;;;5114156;28;20481;-60
2022/08/14 12:07:20;;;;;;;3.60;3.40;;;31.20;92.10;;;;;;5114146;28;20445;-59
2022/08/14 12:09:51;;;;;;;4.53;3.53;;;31.10;92.90;;;;;;5114469;28;20449;-60
2022/08/14 12:12:20;;;;;;;3.60;3.40;;;31.20;92.90;;;;;;5114344;28;20454;-60
2022/08/14 12:14:55;;;;;;;3.70;3.50;;;31.00;93.00;;;;;;5114176;28;20456;-59
2022/08/14 12:17:23;;;;;;;3.70;3.50;;;31.30;92.40;;;;;;5114027;28;20502;-60
2022/08/14 12:19:53;;;;;;;3.80;3.50;;;31.30;91.70;;;;;;5114510;28;20831;-60
2022/08/14 12:22:31;;;;;;;3.67;3.37;;;31.20;90.80;;;;;;5114092;28;20660;-60
2022/08/14 12:24:57;;;;;;;3.60;3.30;;;31.50;90.70;;;;;;5114102;28;20543;-60
2022/08/14 12:27:35;;;;;;;3.97;3.33;;;31.40;89.20;;;;;;5113676;28;20445;-60
2022/08/14 12:30:04;;;;;;;3.10;2.90;;;31.40;87.50;;;;;;5113730;28;20456;-60
2022/08/14 12:32:39;;;;;;;3.90;3.20;;;31.40;87.20;;;;;;5113526;28;20446;-60
2022/08/14 12:35:07;;;;;;;3.40;3.10;;;31.20;86.70;;;;;;5113794;28;20453;-60
2022/08/14 12:37:35;;;;;;;3.07;2.97;;;31.40;87.60;;;;;;5113813;28;20485;-60
2022/08/14 12:40:12;;;;;;;3.47;3.17;;;31.70;87.30;;;;;;5113756;28;20451;-60
2022/08/14 12:42:39;;;;;;;6.20;3.00;;;31.90;85.10;;;;;;5113546;28;20528;-60
2022/08/14 12:45:11;;;;;;;2.90;2.80;;;31.60;82.40;;;;;;5113555;28;20485;-60
2022/08/14 12:47:38;;;;;;;2.77;2.67;;;31.50;78.80;;;;;;5113571;28;20493;-59
2022/08/14 12:50:06;;;;;;;5.23;3.00;;;31.60;77.40;;;;;;5113542;28;20537;-60
2022/08/14 12:52:35;;;;;;;7.00;2.60;;;31.50;75.60;;;;;;5113485;28;20467;-60
2022/08/14 12:55:05;;;;;;;3.33;2.70;;;31.50;74.30;;;;;;5113488;28;20513;-60